Cardiff, New Jersey
Current Conditions -  °F | °C
As of 1:54 PM on Thursday 18 Dec 2014 (Local Time) from KACY Reporting Station
Clear Clear  
Wind Chill: 30°   Ceiling: Unl
Heat Index: 40°   Visibility: 10mi
Dew Point: 23°   Wind: 20mph
Humidity: 51%   Direction: 290°WNW
Pressure: 30"   Gusts: NA
Location:  39.365°N, 74.6283°W
Report Text: KACY 181854Z 29017KT 10SM CLR 04/M05 A3000 RMK AO2 PK WND 32026/1803 SLP159 T00441050
Loading
Personal Weather Stations






























Interactive Weather Map New forecast layout! Learn more

10-Day Weather Forecast

Advertisements
Track Severe Weather on mobile